sensor_id;sensor_type;location;lat;lon;timestamp;P1;durP1;ratioP1;P2;durP2;ratioP2
63346;SDS011;49472;49.880;8.650;2024-03-23T00:55:12;32.93;;;29.57;;
63346;SDS011;49472;49.880;8.650;2024-03-23T00:57:37;31.70;;;28.63;;
63346;SDS011;49472;49.880;8.650;2024-03-23T01:00:02;34.33;;;30.60;;
63346;SDS011;49472;49.880;8.650;2024-03-23T01:02:28;34.67;;;31.30;;
63346;SDS011;49472;49.880;8.650;2024-03-23T01:04:53;36.07;;;32.37;;
63346;SDS011;49472;49.880;8.650;2024-03-23T01:07:18;41.23;;;31.40;;
63346;SDS011;49472;49.880;8.650;2024-03-23T01:09:44;33.43;;;30.13;;
63346;SDS011;49472;49.880;8.650;2024-03-23T01:12:09;34.63;;;30.90;;
63346;SDS011;49472;49.880;8.650;2024-03-23T01:14:34;36.50;;;31.33;;
63346;SDS011;49472;49.880;8.650;2024-03-23T01:17:01;34.70;;;31.13;;
63346;SDS011;49472;49.880;8.650;2024-03-23T01:19:26;34.67;;;31.00;;
63346;SDS011;49472;49.880;8.650;2024-03-23T01:21:51;35.07;;;31.13;;
63346;SDS011;49472;49.880;8.650;2024-03-23T01:24:16;34.27;;;29.87;;
63346;SDS011;49472;49.880;8.650;2024-03-23T01:26:41;31.33;;;28.43;;
63346;SDS011;49472;49.880;8.650;2024-03-23T01:29:06;38.60;;;28.90;;
63346;SDS011;49472;49.880;8.650;2024-03-23T01:31:32;41.63;;;30.63;;
63346;SDS011;49472;49.880;8.650;2024-03-23T01:33:57;36.33;;;30.30;;
63346;SDS011;49472;49.880;8.650;2024-03-23T01:36:23;32.90;;;29.57;;
63346;SDS011;49472;49.880;8.650;2024-03-23T01:38:48;32.83;;;29.57;;
63346;SDS011;49472;49.880;8.650;2024-03-23T01:41:14;32.90;;;29.77;;
63346;SDS011;49472;49.880;8.650;2024-03-23T01:43:39;33.70;;;30.37;;
63346;SDS011;49472;49.880;8.650;2024-03-23T01:46:04;32.27;;;29.23;;
63346;SDS011;49472;49.880;8.650;2024-03-23T01:48:29;34.37;;;29.90;;
63346;SDS011;49472;49.880;8.650;2024-03-23T01:50:54;34.80;;;31.23;;
63346;SDS011;49472;49.880;8.650;2024-03-23T01:53:20;33.90;;;30.60;;
63346;SDS011;49472;49.880;8.650;2024-03-23T01:55:47;34.03;;;30.60;;
63346;SDS011;49472;49.880;8.650;2024-03-23T01:58:12;35.83;;;32.30;;
63346;SDS011;49472;49.880;8.650;2024-03-23T02:00:37;36.80;;;30.43;;
63346;SDS011;49472;49.880;8.650;2024-03-23T02:03:02;32.73;;;29.57;;
63346;SDS011;49472;49.880;8.650;2024-03-23T02:05:46;33.60;;;30.40;;
63346;SDS011;49472;49.880;8.650;2024-03-23T02:08:11;36.50;;;29.80;;
63346;SDS011;49472;49.880;8.650;2024-03-23T02:10:36;34.77;;;30.87;;
63346;SDS011;49472;49.880;8.650;2024-03-23T02:13:02;32.37;;;29.37;;
63346;SDS011;49472;49.880;8.650;2024-03-23T02:15:27;40.33;;;30.57;;
63346;SDS011;49472;49.880;8.650;2024-03-23T02:17:52;32.93;;;29.40;;
63346;SDS011;49472;49.880;8.650;2024-03-23T02:20:17;32.47;;;29.37;;
63346;SDS011;49472;49.880;8.650;2024-03-23T02:22:42;33.93;;;30.33;;
63346;SDS011;49472;49.880;8.650;2024-03-23T02:25:07;32.57;;;29.13;;
63346;SDS011;49472;49.880;8.650;2024-03-23T02:27:33;32.60;;;29.53;;
63346;SDS011;49472;49.880;8.650;2024-03-23T02:29:59;32.57;;;29.37;;
63346;SDS011;49472;49.880;8.650;2024-03-23T02:32:24;35.53;;;31.60;;
63346;SDS011;49472;49.880;8.650;2024-03-23T02:34:50;35.97;;;31.73;;
63346;SDS011;49472;49.880;8.650;2024-03-23T02:37:15;36.50;;;32.50;;
63346;SDS011;49472;49.880;8.650;2024-03-23T02:39:40;34.07;;;30.70;;
63346;SDS011;49472;49.880;8.650;2024-03-23T02:42:05;34.60;;;30.83;;
63346;SDS011;49472;49.880;8.650;2024-03-23T02:44:31;32.50;;;29.37;;
63346;SDS011;49472;49.880;8.650;2024-03-23T02:46:56;34.10;;;30.57;;
63346;SDS011;49472;49.880;8.650;2024-03-23T02:49:21;53.73;;;32.27;;
63346;SDS011;49472;49.880;8.650;2024-03-23T02:51:46;33.80;;;30.53;;
63346;SDS011;49472;49.880;8.650;2024-03-23T02:54:13;34.53;;;31.10;;
63346;SDS011;49472;49.880;8.650;2024-03-23T02:56:38;35.27;;;31.47;;
63346;SDS011;49472;49.880;8.650;2024-03-23T02:59:04;34.73;;;31.33;;
63346;SDS011;49472;49.880;8.650;2024-03-23T03:01:29;36.13;;;32.47;;
63346;SDS011;49472;49.880;8.650;2024-03-23T03:03:54;34.50;;;31.23;;
63346;SDS011;49472;49.880;8.650;2024-03-23T03:06:23;35.57;;;32.10;;
63346;SDS011;49472;49.880;8.650;2024-03-23T03:08:49;37.17;;;33.47;;
63346;SDS011;49472;49.880;8.650;2024-03-23T03:11:14;35.20;;;31.97;;
63346;SDS011;49472;49.880;8.650;2024-03-23T03:13:39;38.43;;;33.27;;
63346;SDS011;49472;49.880;8.650;2024-03-23T03:16:08;36.60;;;32.90;;
63346;SDS011;49472;49.880;8.650;2024-03-23T03:18:33;35.77;;;32.20;;
63346;SDS011;49472;49.880;8.650;2024-03-23T03:20:58;35.63;;;32.10;;
63346;SDS011;49472;49.880;8.650;2024-03-23T03:23:23;35.93;;;32.00;;
63346;SDS011;49472;49.880;8.650;2024-03-23T03:25:49;36.33;;;32.60;;
63346;SDS011;49472;49.880;8.650;2024-03-23T03:28:14;35.93;;;32.13;;
63346;SDS011;49472;49.880;8.650;2024-03-23T03:30:39;35.97;;;32.73;;
63346;SDS011;49472;49.880;8.650;2024-03-23T03:33:04;36.30;;;32.30;;
63346;SDS011;49472;49.880;8.650;2024-03-23T03:35:30;41.43;;;31.47;;
63346;SDS011;49472;49.880;8.650;2024-03-23T03:37:55;37.93;;;31.87;;
63346;SDS011;49472;49.880;8.650;2024-03-23T03:40:20;35.07;;;31.57;;
63346;SDS011;49472;49.880;8.650;2024-03-23T03:42:45;40.53;;;32.53;;
63346;SDS011;49472;49.880;8.650;2024-03-23T03:45:11;41.23;;;33.87;;
63346;SDS011;49472;49.880;8.650;2024-03-23T03:47:36;37.07;;;33.20;;
63346;SDS011;49472;49.880;8.650;2024-03-23T03:50:01;34.33;;;30.87;;
63346;SDS011;49472;49.880;8.650;2024-03-23T03:52:26;36.53;;;32.53;;
63346;SDS011;49472;49.880;8.650;2024-03-23T03:54:55;37.13;;;32.83;;
63346;SDS011;49472;49.880;8.650;2024-03-23T03:57:20;37.13;;;33.30;;
63346;SDS011;49472;49.880;8.650;2024-03-23T03:59:45;35.73;;;31.97;;
63346;SDS011;49472;49.880;8.650;2024-03-23T04:02:11;38.80;;;34.70;;
63346;SDS011;49472;49.880;8.650;2024-03-23T04:04:36;38.40;;;34.40;;
63346;SDS011;49472;49.880;8.650;2024-03-23T04:07:01;36.40;;;32.70;;
63346;SDS011;49472;49.880;8.650;2024-03-23T04:09:26;46.83;;;34.27;;
63346;SDS011;49472;49.880;8.650;2024-03-23T04:11:52;37.93;;;33.83;;
63346;SDS011;49472;49.880;8.650;2024-03-23T04:14:17;43.83;;;34.23;;
63346;SDS011;49472;49.880;8.650;2024-03-23T04:16:42;42.30;;;34.40;;
63346;SDS011;49472;49.880;8.650;2024-03-23T04:19:08;38.47;;;34.40;;
63346;SDS011;49472;49.880;8.650;2024-03-23T04:21:33;39.83;;;34.87;;
63346;SDS011;49472;49.880;8.650;2024-03-23T04:23:59;48.47;;;34.90;;
63346;SDS011;49472;49.880;8.650;2024-03-23T04:26:24;42.70;;;34.63;;
63346;SDS011;49472;49.880;8.650;2024-03-23T04:28:49;40.47;;;34.77;;
63346;SDS011;49472;49.880;8.650;2024-03-23T04:31:14;52.43;;;35.60;;
63346;SDS011;49472;49.880;8.650;2024-03-23T04:33:40;51.33;;;38.20;;
63346;SDS011;49472;49.880;8.650;2024-03-23T04:36:05;51.80;;;38.20;;
63346;SDS011;49472;49.880;8.650;2024-03-23T04:38:30;45.80;;;37.80;;
63346;SDS011;49472;49.880;8.650;2024-03-23T04:40:56;43.37;;;35.47;;
63346;SDS011;49472;49.880;8.650;2024-03-23T04:43:21;40.40;;;35.70;;
63346;SDS011;49472;49.880;8.650;2024-03-23T04:45:46;45.30;;;35.60;;
63346;SDS011;49472;49.880;8.650;2024-03-23T04:48:11;36.20;;;31.80;;
63346;SDS011;49472;49.880;8.650;2024-03-23T04:50:36;33.80;;;30.33;;
63346;SDS011;49472;49.880;8.650;2024-03-23T04:53:02;32.40;;;28.20;;
63346;SDS011;49472;49.880;8.650;2024-03-23T04:55:27;30.23;;;26.97;;
63346;SDS011;49472;49.880;8.650;2024-03-23T04:57:53;32.20;;;25.10;;
63346;SDS011;49472;49.880;8.650;2024-03-23T05:00:18;26.10;;;23.40;;
63346;SDS011;49472;49.880;8.650;2024-03-23T05:02:44;24.57;;;22.10;;
63346;SDS011;49472;49.880;8.650;2024-03-23T05:05:10;22.53;;;20.73;;
63346;SDS011;49472;49.880;8.650;2024-03-23T05:07:35;21.10;;;19.30;;
63346;SDS011;49472;49.880;8.650;2024-03-23T05:10:00;26.50;;;20.60;;
63346;SDS011;49472;49.880;8.650;2024-03-23T05:12:25;20.07;;;18.27;;
63346;SDS011;49472;49.880;8.650;2024-03-23T05:14:50;18.27;;;16.87;;
63346;SDS011;49472;49.880;8.650;2024-03-23T05:17:16;17.67;;;16.57;;
63346;SDS011;49472;49.880;8.650;2024-03-23T05:19:41;17.10;;;16.00;;
63346;SDS011;49472;49.880;8.650;2024-03-23T05:22:06;17.10;;;16.00;;
63346;SDS011;49472;49.880;8.650;2024-03-23T05:24:32;17.17;;;16.07;;
63346;SDS011;49472;49.880;8.650;2024-03-23T05:26:57;16.90;;;15.70;;
63346;SDS011;49472;49.880;8.650;2024-03-23T05:29:24;16.67;;;15.57;;
63346;SDS011;49472;49.880;8.650;2024-03-23T05:31:51;16.90;;;15.70;;
63346;SDS011;49472;49.880;8.650;2024-03-23T05:34:16;16.93;;;15.77;;
63346;SDS011;49472;49.880;8.650;2024-03-23T05:36:41;16.50;;;15.60;;
63346;SDS011;49472;49.880;8.650;2024-03-23T05:39:07;16.70;;;15.63;;
63346;SDS011;49472;49.880;8.650;2024-03-23T05:41:32;16.23;;;15.33;;
63346;SDS011;49472;49.880;8.650;2024-03-23T05:43:58;16.00;;;15.10;;
63346;SDS011;49472;49.880;8.650;2024-03-23T05:46:23;16.90;;;15.80;;
63346;SDS011;49472;49.880;8.650;2024-03-23T05:48:49;17.13;;;15.80;;
63346;SDS011;49472;49.880;8.650;2024-03-23T05:51:15;17.03;;;16.03;;
63346;SDS011;49472;49.880;8.650;2024-03-23T05:53:41;16.57;;;15.63;;
63346;SDS011;49472;49.880;8.650;2024-03-23T05:56:06;17.40;;;16.30;;
63346;SDS011;49472;49.880;8.650;2024-03-23T05:58:32;17.03;;;16.03;;
63346;SDS011;49472;49.880;8.650;2024-03-23T06:00:57;18.07;;;16.80;;
63346;SDS011;49472;49.880;8.650;2024-03-23T06:03:24;19.30;;;18.00;;
63346;SDS011;49472;49.880;8.650;2024-03-23T06:05:49;18.70;;;17.50;;
63346;SDS011;49472;49.880;8.650;2024-03-23T06:08:14;21.00;;;19.60;;
63346;SDS011;49472;49.880;8.650;2024-03-23T06:10:40;19.10;;;17.90;;
63346;SDS011;49472;49.880;8.650;2024-03-23T06:13:05;20.20;;;18.70;;
63346;SDS011;49472;49.880;8.650;2024-03-23T06:15:30;19.97;;;18.67;;
63346;SDS011;49472;49.880;8.650;2024-03-23T06:17:56;19.67;;;18.07;;
63346;SDS011;49472;49.880;8.650;2024-03-23T06:20:21;20.10;;;18.80;;
63346;SDS011;49472;49.880;8.650;2024-03-23T06:22:47;19.60;;;18.30;;
63346;SDS011;49472;49.880;8.650;2024-03-23T06:25:12;20.83;;;18.93;;
63346;SDS011;49472;49.880;8.650;2024-03-23T06:27:37;19.40;;;18.20;;
63346;SDS011;49472;49.880;8.650;2024-03-23T06:30:04;18.97;;;17.80;;
63346;SDS011;49472;49.880;8.650;2024-03-23T06:32:29;18.60;;;17.23;;
63346;SDS011;49472;49.880;8.650;2024-03-23T06:34:54;17.30;;;16.20;;
63346;SDS011;49472;49.880;8.650;2024-03-23T06:37:20;18.03;;;17.03;;
63346;SDS011;49472;49.880;8.650;2024-03-23T06:39:45;18.00;;;16.80;;
63346;SDS011;49472;49.880;8.650;2024-03-23T06:42:11;17.80;;;16.67;;
63346;SDS011;49472;49.880;8.650;2024-03-23T06:44:36;17.67;;;16.57;;
63346;SDS011;49472;49.880;8.650;2024-03-23T06:47:01;17.17;;;16.00;;
63346;SDS011;49472;49.880;8.650;2024-03-23T06:49:27;16.90;;;15.70;;
63346;SDS011;49472;49.880;8.650;2024-03-23T06:51:52;16.70;;;15.70;;
63346;SDS011;49472;49.880;8.650;2024-03-23T06:54:19;16.90;;;16.00;;
63346;SDS011;49472;49.880;8.650;2024-03-23T06:56:44;16.90;;;15.90;;
63346;SDS011;49472;49.880;8.650;2024-03-23T06:59:09;16.77;;;15.83;;
63346;SDS011;49472;49.880;8.650;2024-03-23T07:01:34;17.43;;;16.33;;
63346;SDS011;49472;49.880;8.650;2024-03-23T07:04:00;16.83;;;15.80;;
63346;SDS011;49472;49.880;8.650;2024-03-23T07:06:25;16.23;;;15.30;;
63346;SDS011;49472;49.880;8.650;2024-03-23T07:08:51;16.63;;;15.73;;
63346;SDS011;49472;49.880;8.650;2024-03-23T07:11:20;16.17;;;14.97;;
63346;SDS011;49472;49.880;8.650;2024-03-23T07:13:46;15.97;;;14.97;;
63346;SDS011;49472;49.880;8.650;2024-03-23T07:16:11;16.67;;;15.67;;
63346;SDS011;49472;49.880;8.650;2024-03-23T07:18:36;16.50;;;15.50;;
63346;SDS011;49472;49.880;8.650;2024-03-23T07:21:01;16.50;;;15.40;;
63346;SDS011;49472;49.880;8.650;2024-03-23T07:23:27;16.50;;;15.50;;
63346;SDS011;49472;49.880;8.650;2024-03-23T07:28:23;16.10;;;15.20;;
63346;SDS011;49472;49.880;8.650;2024-03-23T07:30:58;16.80;;;15.70;;
63346;SDS011;49472;49.880;8.650;2024-03-23T07:33:23;17.23;;;15.67;;
63346;SDS011;49472;49.880;8.650;2024-03-23T07:35:48;17.60;;;16.27;;
63346;SDS011;49472;49.880;8.650;2024-03-23T07:38:13;17.73;;;16.13;;
63346;SDS011;49472;49.880;8.650;2024-03-23T07:40:39;16.67;;;15.57;;
63346;SDS011;49472;49.880;8.650;2024-03-23T07:43:04;17.13;;;15.73;;
63346;SDS011;49472;49.880;8.650;2024-03-23T07:45:29;17.70;;;16.20;;
63346;SDS011;49472;49.880;8.650;2024-03-23T07:47:54;16.70;;;15.30;;
63346;SDS011;49472;49.880;8.650;2024-03-23T07:50:20;18.13;;;15.97;;
63346;SDS011;49472;49.880;8.650;2024-03-23T07:52:45;16.93;;;15.73;;
63346;SDS011;49472;49.880;8.650;2024-03-23T07:55:10;20.00;;;16.57;;
63346;SDS011;49472;49.880;8.650;2024-03-23T07:57:35;17.87;;;16.13;;
63346;SDS011;49472;49.880;8.650;2024-03-23T08:00:00;16.23;;;15.10;;
63346;SDS011;49472;49.880;8.650;2024-03-23T08:02:25;16.90;;;15.60;;
63346;SDS011;49472;49.880;8.650;2024-03-23T08:04:51;18.93;;;17.40;;
63346;SDS011;49472;49.880;8.650;2024-03-23T08:07:16;18.33;;;16.90;;
63346;SDS011;49472;49.880;8.650;2024-03-23T08:09:41;17.80;;;16.30;;
63346;SDS011;49472;49.880;8.650;2024-03-23T08:12:06;18.63;;;16.70;;
63346;SDS011;49472;49.880;8.650;2024-03-23T08:14:32;19.13;;;17.57;;
63346;SDS011;49472;49.880;8.650;2024-03-23T08:16:57;19.87;;;17.60;;
63346;SDS011;49472;49.880;8.650;2024-03-23T08:19:22;18.87;;;17.10;;
63346;SDS011;49472;49.880;8.650;2024-03-23T08:21:47;19.37;;;17.37;;
63346;SDS011;49472;49.880;8.650;2024-03-23T08:24:12;18.47;;;16.80;;
63346;SDS011;49472;49.880;8.650;2024-03-23T08:26:38;19.47;;;18.00;;
63346;SDS011;49472;49.880;8.650;2024-03-23T08:29:03;19.77;;;17.83;;
63346;SDS011;49472;49.880;8.650;2024-03-23T08:31:28;19.10;;;17.80;;
63346;SDS011;49472;49.880;8.650;2024-03-23T08:33:54;20.40;;;18.40;;
63346;SDS011;49472;49.880;8.650;2024-03-23T08:36:19;20.93;;;19.13;;
63346;SDS011;49472;49.880;8.650;2024-03-23T08:38:44;19.40;;;17.47;;
63346;SDS011;49472;49.880;8.650;2024-03-23T08:41:10;21.00;;;19.23;;
63346;SDS011;49472;49.880;8.650;2024-03-23T08:43:36;20.67;;;18.77;;
63346;SDS011;49472;49.880;8.650;2024-03-23T08:48:34;20.17;;;18.20;;
63346;SDS011;49472;49.880;8.650;2024-03-23T08:51:00;23.63;;;20.60;;
63346;SDS011;49472;49.880;8.650;2024-03-23T08:53:27;21.00;;;19.30;;
63346;SDS011;49472;49.880;8.650;2024-03-23T08:55:55;21.60;;;19.50;;
63346;SDS011;49472;49.880;8.650;2024-03-23T08:58:20;23.17;;;19.30;;
63346;SDS011;49472;49.880;8.650;2024-03-23T09:00:45;21.37;;;19.47;;
63346;SDS011;49472;49.880;8.650;2024-03-23T09:03:11;19.67;;;18.07;;
63346;SDS011;49472;49.880;8.650;2024-03-23T09:05:40;20.60;;;18.60;;
63346;SDS011;49472;49.880;8.650;2024-03-23T09:08:05;20.50;;;18.67;;
63346;SDS011;49472;49.880;8.650;2024-03-23T09:10:31;19.93;;;17.93;;
63346;SDS011;49472;49.880;8.650;2024-03-23T09:12:56;19.63;;;18.10;;
63346;SDS011;49472;49.880;8.650;2024-03-23T09:15:21;20.20;;;18.20;;
63346;SDS011;49472;49.880;8.650;2024-03-23T09:17:47;20.93;;;19.00;;
63346;SDS011;49472;49.880;8.650;2024-03-23T09:20:12;22.57;;;19.73;;
63346;SDS011;49472;49.880;8.650;2024-03-23T09:22:37;29.53;;;20.67;;
63346;SDS011;49472;49.880;8.650;2024-03-23T09:25:02;23.70;;;19.60;;
63346;SDS011;49472;49.880;8.650;2024-03-23T09:27:30;21.50;;;19.23;;
63346;SDS011;49472;49.880;8.650;2024-03-23T09:29:55;21.20;;;18.90;;
63346;SDS011;49472;49.880;8.650;2024-03-23T09:32:20;21.63;;;19.30;;
63346;SDS011;49472;49.880;8.650;2024-03-23T09:34:45;20.70;;;18.87;;
63346;SDS011;49472;49.880;8.650;2024-03-23T09:37:10;25.80;;;19.73;;
63346;SDS011;49472;49.880;8.650;2024-03-23T09:39:36;22.70;;;19.57;;
63346;SDS011;49472;49.880;8.650;2024-03-23T09:42:01;21.63;;;19.53;;
63346;SDS011;49472;49.880;8.650;2024-03-23T09:44:27;24.13;;;19.10;;
63346;SDS011;49472;49.880;8.650;2024-03-23T09:46:54;21.13;;;18.90;;
63346;SDS011;49472;49.880;8.650;2024-03-23T09:49:19;20.67;;;18.87;;
63346;SDS011;49472;49.880;8.650;2024-03-23T09:51:45;20.13;;;18.17;;
63346;SDS011;49472;49.880;8.650;2024-03-23T09:54:10;20.83;;;18.80;;
63346;SDS011;49472;49.880;8.650;2024-03-23T09:56:35;20.60;;;18.70;;
63346;SDS011;49472;49.880;8.650;2024-03-23T09:59:01;20.37;;;18.20;;
63346;SDS011;49472;49.880;8.650;2024-03-23T10:01:29;20.63;;;18.53;;
63346;SDS011;49472;49.880;8.650;2024-03-23T10:03:55;20.70;;;18.70;;
63346;SDS011;49472;49.880;8.650;2024-03-23T10:06:21;21.97;;;19.43;;
63346;SDS011;49472;49.880;8.650;2024-03-23T10:08:46;20.87;;;18.97;;
63346;SDS011;49472;49.880;8.650;2024-03-23T10:11:12;26.60;;;18.80;;
63346;SDS011;49472;49.880;8.650;2024-03-23T10:13:38;21.83;;;19.57;;
63346;SDS011;49472;49.880;8.650;2024-03-23T10:16:06;20.13;;;18.23;;
63346;SDS011;49472;49.880;8.650;2024-03-23T10:18:31;22.90;;;18.10;;
63346;SDS011;49472;49.880;8.650;2024-03-23T10:23:25;18.77;;;17.40;;
63346;SDS011;49472;49.880;8.650;2024-03-23T10:25:50;24.30;;;18.40;;
63346;SDS011;49472;49.880;8.650;2024-03-23T10:28:15;20.10;;;18.00;;
63346;SDS011;49472;49.880;8.650;2024-03-23T10:30:41;20.40;;;18.50;;
63346;SDS011;49472;49.880;8.650;2024-03-23T10:33:07;18.80;;;17.17;;
63346;SDS011;49472;49.880;8.650;2024-03-23T10:35:32;19.37;;;17.57;;
63346;SDS011;49472;49.880;8.650;2024-03-23T10:37:57;20.87;;;17.80;;
63346;SDS011;49472;49.880;8.650;2024-03-23T10:40:23;19.20;;;17.50;;
63346;SDS011;49472;49.880;8.650;2024-03-23T10:42:48;18.80;;;16.83;;
63346;SDS011;49472;49.880;8.650;2024-03-23T10:45:13;19.50;;;17.47;;
63346;SDS011;49472;49.880;8.650;2024-03-23T10:47:39;18.60;;;16.77;;
63346;SDS011;49472;49.880;8.650;2024-03-23T10:50:04;21.77;;;16.90;;
63346;SDS011;49472;49.880;8.650;2024-03-23T10:52:33;18.60;;;16.73;;
63346;SDS011;49472;49.880;8.650;2024-03-23T10:54:58;18.30;;;16.60;;
63346;SDS011;49472;49.880;8.650;2024-03-23T10:57:27;19.60;;;16.60;;
63346;SDS011;49472;49.880;8.650;2024-03-23T10:59:54;18.03;;;16.23;;
63346;SDS011;49472;49.880;8.650;2024-03-23T11:02:20;18.30;;;16.40;;
63346;SDS011;49472;49.880;8.650;2024-03-23T11:04:45;18.20;;;16.70;;
63346;SDS011;49472;49.880;8.650;2024-03-23T11:09:53;16.37;;;15.17;;
63346;SDS011;49472;49.880;8.650;2024-03-23T11:14:44;19.60;;;18.10;;
63346;SDS011;49472;49.880;8.650;2024-03-23T11:17:09;19.73;;;17.93;;
63346;SDS011;49472;49.880;8.650;2024-03-23T11:22:01;18.17;;;16.43;;
63346;SDS011;49472;49.880;8.650;2024-03-23T11:24:26;20.60;;;17.90;;
63346;SDS011;49472;49.880;8.650;2024-03-23T11:26:51;19.43;;;17.43;;
63346;SDS011;49472;49.880;8.650;2024-03-23T11:29:17;18.30;;;16.80;;
63346;SDS011;49472;49.880;8.650;2024-03-23T11:31:50;20.00;;;17.53;;
63346;SDS011;49472;49.880;8.650;2024-03-23T11:34:16;19.10;;;17.47;;
63346;SDS011;49472;49.880;8.650;2024-03-23T11:36:42;19.27;;;17.80;;
63346;SDS011;49472;49.880;8.650;2024-03-23T11:39:13;19.33;;;17.50;;
63346;SDS011;49472;49.880;8.650;2024-03-23T11:41:49;17.73;;;16.63;;
63346;SDS011;49472;49.880;8.650;2024-03-23T11:44:21;18.43;;;16.63;;
63346;SDS011;49472;49.880;8.650;2024-03-23T11:46:47;19.57;;;16.73;;
63346;SDS011;49472;49.880;8.650;2024-03-23T11:49:22;18.03;;;16.80;;
63346;SDS011;49472;49.880;8.650;2024-03-23T11:51:48;18.87;;;17.20;;
63346;SDS011;49472;49.880;8.650;2024-03-23T11:54:13;16.87;;;15.83;;
63346;SDS011;49472;49.880;8.650;2024-03-23T11:56:38;16.90;;;15.90;;
63346;SDS011;49472;49.880;8.650;2024-03-23T11:59:03;18.20;;;16.43;;
63346;SDS011;49472;49.880;8.650;2024-03-23T12:01:29;16.70;;;15.80;;
63346;SDS011;49472;49.880;8.650;2024-03-23T12:03:54;17.23;;;15.93;;
63346;SDS011;49472;49.880;8.650;2024-03-23T12:06:19;17.67;;;16.13;;
63346;SDS011;49472;49.880;8.650;2024-03-23T12:08:44;17.03;;;16.03;;
63346;SDS011;49472;49.880;8.650;2024-03-23T12:13:39;18.97;;;16.73;;
63346;SDS011;49472;49.880;8.650;2024-03-23T12:16:19;17.90;;;16.17;;
63346;SDS011;49472;49.880;8.650;2024-03-23T12:18:45;16.77;;;15.77;;
63346;SDS011;49472;49.880;8.650;2024-03-23T12:21:11;17.13;;;16.07;;
63346;SDS011;49472;49.880;8.650;2024-03-23T12:23:38;17.37;;;15.90;;
63346;SDS011;49472;49.880;8.650;2024-03-23T12:26:04;17.40;;;16.03;;
63346;SDS011;49472;49.880;8.650;2024-03-23T12:28:29;17.90;;;16.40;;
63346;SDS011;49472;49.880;8.650;2024-03-23T12:30:54;17.23;;;15.87;;
63346;SDS011;49472;49.880;8.650;2024-03-23T12:33:22;17.67;;;16.43;;
63346;SDS011;49472;49.880;8.650;2024-03-23T12:35:51;17.07;;;15.97;;
63346;SDS011;49472;49.880;8.650;2024-03-23T12:38:16;18.07;;;16.63;;
63346;SDS011;49472;49.880;8.650;2024-03-23T12:40:42;19.90;;;16.90;;
63346;SDS011;49472;49.880;8.650;2024-03-23T12:43:11;18.87;;;17.07;;
63346;SDS011;49472;49.880;8.650;2024-03-23T12:45:36;18.80;;;17.40;;
63346;SDS011;49472;49.880;8.650;2024-03-23T12:48:01;19.90;;;18.00;;
63346;SDS011;49472;49.880;8.650;2024-03-23T12:50:27;18.33;;;17.03;;
63346;SDS011;49472;49.880;8.650;2024-03-23T12:52:52;17.77;;;16.40;;
63346;SDS011;49472;49.880;8.650;2024-03-23T12:55:17;18.70;;;17.10;;
63346;SDS011;49472;49.880;8.650;2024-03-23T12:57:43;18.80;;;16.80;;
63346;SDS011;49472;49.880;8.650;2024-03-23T13:00:08;19.20;;;17.60;;
63346;SDS011;49472;49.880;8.650;2024-03-23T13:02:36;17.93;;;16.60;;
63346;SDS011;49472;49.880;8.650;2024-03-23T13:05:01;17.87;;;16.50;;
63346;SDS011;49472;49.880;8.650;2024-03-23T13:07:27;18.70;;;16.90;;
63346;SDS011;49472;49.880;8.650;2024-03-23T13:09:53;18.80;;;17.07;;
63346;SDS011;49472;49.880;8.650;2024-03-23T13:12:18;18.70;;;17.20;;
63346;SDS011;49472;49.880;8.650;2024-03-23T13:14:44;22.10;;;20.20;;
63346;SDS011;49472;49.880;8.650;2024-03-23T13:17:09;28.80;;;20.33;;
63346;SDS011;49472;49.880;8.650;2024-03-23T13:19:35;19.77;;;18.00;;
63346;SDS011;49472;49.880;8.650;2024-03-23T13:22:00;10.87;;;10.00;;
63346;SDS011;49472;49.880;8.650;2024-03-23T13:24:26;9.13;;;8.00;;
63346;SDS011;49472;49.880;8.650;2024-03-23T13:26:51;7.33;;;6.63;;
63346;SDS011;49472;49.880;8.650;2024-03-23T13:29:17;11.93;;;5.20;;
63346;SDS011;49472;49.880;8.650;2024-03-23T13:31:42;9.30;;;6.40;;
63346;SDS011;49472;49.880;8.650;2024-03-23T13:34:08;8.80;;;7.53;;
63346;SDS011;49472;49.880;8.650;2024-03-23T13:36:33;14.90;;;6.50;;
63346;SDS011;49472;49.880;8.650;2024-03-23T13:38:58;12.63;;;6.70;;
63346;SDS011;49472;49.880;8.650;2024-03-23T13:41:24;7.50;;;6.80;;
63346;SDS011;49472;49.880;8.650;2024-03-23T13:43:49;10.07;;;6.97;;
63346;SDS011;49472;49.880;8.650;2024-03-23T13:46:15;6.93;;;6.40;;
63346;SDS011;49472;49.880;8.650;2024-03-23T13:48:40;11.13;;;7.40;;
63346;SDS011;49472;49.880;8.650;2024-03-23T13:51:07;11.30;;;7.27;;
63346;SDS011;49472;49.880;8.650;2024-03-23T13:53:32;14.10;;;7.67;;
63346;SDS011;49472;49.880;8.650;2024-03-23T13:55:57;10.70;;;9.60;;
63346;SDS011;49472;49.880;8.650;2024-03-23T13:58:23;13.33;;;9.90;;
63346;SDS011;49472;49.880;8.650;2024-03-23T14:00:51;14.57;;;11.10;;
63346;SDS011;49472;49.880;8.650;2024-03-23T14:03:16;12.27;;;11.20;;
63346;SDS011;49472;49.880;8.650;2024-03-23T14:05:43;12.50;;;11.23;;
63346;SDS011;49472;49.880;8.650;2024-03-23T14:08:08;13.90;;;12.80;;
63346;SDS011;49472;49.880;8.650;2024-03-23T14:10:34;14.83;;;13.83;;
63346;SDS011;49472;49.880;8.650;2024-03-23T14:13:00;15.13;;;14.03;;
63346;SDS011;49472;49.880;8.650;2024-03-23T14:15:26;17.17;;;15.60;;
63346;SDS011;49472;49.880;8.650;2024-03-23T14:17:51;16.03;;;15.00;;
63346;SDS011;49472;49.880;8.650;2024-03-23T14:20:16;16.77;;;15.23;;
63346;SDS011;49472;49.880;8.650;2024-03-23T14:22:42;18.83;;;17.17;;
63346;SDS011;49472;49.880;8.650;2024-03-23T14:25:08;18.00;;;16.80;;
63346;SDS011;49472;49.880;8.650;2024-03-23T14:27:34;17.67;;;16.47;;
63346;SDS011;49472;49.880;8.650;2024-03-23T14:30:02;18.90;;;16.90;;
63346;SDS011;49472;49.880;8.650;2024-03-23T14:32:28;18.10;;;16.80;;
63346;SDS011;49472;49.880;8.650;2024-03-23T14:34:55;18.60;;;17.40;;
63346;SDS011;49472;49.880;8.650;2024-03-23T14:37:21;18.70;;;17.50;;
63346;SDS011;49472;49.880;8.650;2024-03-23T14:39:46;18.87;;;17.27;;
63346;SDS011;49472;49.880;8.650;2024-03-23T14:42:11;19.40;;;18.10;;
63346;SDS011;49472;49.880;8.650;2024-03-23T14:44:36;18.77;;;17.57;;
63346;SDS011;49472;49.880;8.650;2024-03-23T14:47:01;18.93;;;17.50;;
63346;SDS011;49472;49.880;8.650;2024-03-23T14:49:27;18.97;;;17.67;;
63346;SDS011;49472;49.880;8.650;2024-03-23T14:51:52;18.10;;;16.90;;
63346;SDS011;49472;49.880;8.650;2024-03-23T14:54:17;17.93;;;16.53;;
63346;SDS011;49472;49.880;8.650;2024-03-23T14:56:42;18.50;;;17.20;;
63346;SDS011;49472;49.880;8.650;2024-03-23T14:59:07;17.43;;;16.43;;
63346;SDS011;49472;49.880;8.650;2024-03-23T15:01:33;18.20;;;16.90;;
63346;SDS011;49472;49.880;8.650;2024-03-23T15:03:58;17.53;;;16.23;;
63346;SDS011;49472;49.880;8.650;2024-03-23T15:06:24;17.20;;;16.20;;
63346;SDS011;49472;49.880;8.650;2024-03-23T15:08:49;18.77;;;17.13;;
63346;SDS011;49472;49.880;8.650;2024-03-23T15:11:14;17.07;;;15.90;;
63346;SDS011;49472;49.880;8.650;2024-03-23T15:13:43;17.63;;;16.33;;
63346;SDS011;49472;49.880;8.650;2024-03-23T15:16:08;17.53;;;16.43;;
63346;SDS011;49472;49.880;8.650;2024-03-23T15:18:33;17.67;;;16.47;;
63346;SDS011;49472;49.880;8.650;2024-03-23T15:21:01;16.27;;;15.40;;
63346;SDS011;49472;49.880;8.650;2024-03-23T15:23:34;18.57;;;16.07;;
63346;SDS011;49472;49.880;8.650;2024-03-23T15:25:59;17.83;;;16.50;;